sensor_id;sensor_type;location;lat;lon;timestamp;P1;durP1;ratioP1;P2;durP2;ratioP2
3149;SDS011;32503;47.748;8.960;2023-06-01T00:00:13;4.67;;;4.37;;
3149;SDS011;32503;47.748;8.960;2023-06-01T00:02:41;4.83;;;4.53;;
3149;SDS011;32503;47.748;8.960;2023-06-01T00:05:08;6.90;;;6.40;;
3149;SDS011;32503;47.748;8.960;2023-06-01T00:07:36;4.33;;;4.03;;
3149;SDS011;32503;47.748;8.960;2023-06-01T00:10:04;5.60;;;5.10;;
3149;SDS011;32503;47.748;8.960;2023-06-01T00:12:31;6.37;;;5.77;;
3149;SDS011;32503;47.748;8.960;2023-06-01T00:14:59;4.67;;;4.37;;
3149;SDS011;32503;47.748;8.960;2023-06-01T00:17:26;5.77;;;5.27;;
3149;SDS011;32503;47.748;8.960;2023-06-01T00:19:54;5.27;;;4.87;;
3149;SDS011;32503;47.748;8.960;2023-06-01T00:22:21;5.20;;;4.90;;
3149;SDS011;32503;47.748;8.960;2023-06-01T00:24:50;6.53;;;6.03;;
3149;SDS011;32503;47.748;8.960;2023-06-01T00:27:17;6.07;;;5.57;;
3149;SDS011;32503;47.748;8.960;2023-06-01T00:29:44;4.97;;;4.67;;
3149;SDS011;32503;47.748;8.960;2023-06-01T00:32:11;6.07;;;5.60;;
3149;SDS011;32503;47.748;8.960;2023-06-01T00:34:38;5.97;;;5.40;;
3149;SDS011;32503;47.748;8.960;2023-06-01T00:37:05;5.60;;;5.20;;
3149;SDS011;32503;47.748;8.960;2023-06-01T00:39:32;5.43;;;5.10;;
3149;SDS011;32503;47.748;8.960;2023-06-01T00:42:00;6.10;;;5.53;;
3149;SDS011;32503;47.748;8.960;2023-06-01T00:44:27;5.70;;;5.20;;
3149;SDS011;32503;47.748;8.960;2023-06-01T00:46:55;5.80;;;5.40;;
3149;SDS011;32503;47.748;8.960;2023-06-01T00:49:24;5.10;;;4.70;;
3149;SDS011;32503;47.748;8.960;2023-06-01T00:51:51;6.10;;;5.70;;
3149;SDS011;32503;47.748;8.960;2023-06-01T00:54:19;5.67;;;5.27;;
3149;SDS011;32503;47.748;8.960;2023-06-01T00:56:46;5.00;;;4.50;;
3149;SDS011;32503;47.748;8.960;2023-06-01T00:59:15;5.73;;;5.20;;
3149;SDS011;32503;47.748;8.960;2023-06-01T01:01:42;5.83;;;5.43;;
3149;SDS011;32503;47.748;8.960;2023-06-01T01:04:09;6.17;;;5.67;;
3149;SDS011;32503;47.748;8.960;2023-06-01T01:06:39;5.30;;;5.10;;
3149;SDS011;32503;47.748;8.960;2023-06-01T01:09:22;5.30;;;5.00;;
3149;SDS011;32503;47.748;8.960;2023-06-01T01:15:28;5.80;;;5.40;;
3149;SDS011;32503;47.748;8.960;2023-06-01T01:18:02;6.47;;;5.83;;
3149;SDS011;32503;47.748;8.960;2023-06-01T01:20:37;5.63;;;5.23;;
3149;SDS011;32503;47.748;8.960;2023-06-01T01:23:20;5.90;;;5.37;;
3149;SDS011;32503;47.748;8.960;2023-06-01T01:29:14;5.43;;;5.03;;
3149;SDS011;32503;47.748;8.960;2023-06-01T01:31:41;6.70;;;6.10;;
3149;SDS011;32503;47.748;8.960;2023-06-01T01:34:11;5.63;;;5.30;;
3149;SDS011;32503;47.748;8.960;2023-06-01T01:36:38;5.83;;;5.53;;
3149;SDS011;32503;47.748;8.960;2023-06-01T01:39:06;6.07;;;5.50;;
3149;SDS011;32503;47.748;8.960;2023-06-01T01:41:33;6.40;;;6.00;;
3149;SDS011;32503;47.748;8.960;2023-06-01T01:44:00;6.00;;;5.50;;
3149;SDS011;32503;47.748;8.960;2023-06-01T01:46:30;5.80;;;5.50;;
3149;SDS011;32503;47.748;8.960;2023-06-01T01:49:09;6.73;;;6.13;;
3149;SDS011;32503;47.748;8.960;2023-06-01T01:51:45;5.80;;;5.50;;
3149;SDS011;32503;47.748;8.960;2023-06-01T01:54:20;5.30;;;5.00;;
3149;SDS011;32503;47.748;8.960;2023-06-01T01:56:50;5.90;;;5.33;;
3149;SDS011;32503;47.748;8.960;2023-06-01T01:59:22;6.60;;;6.27;;
3149;SDS011;32503;47.748;8.960;2023-06-01T02:01:51;6.40;;;6.00;;
3149;SDS011;32503;47.748;8.960;2023-06-01T02:04:19;10.40;;;6.20;;
3149;SDS011;32503;47.748;8.960;2023-06-01T02:06:46;6.43;;;5.90;;
3149;SDS011;32503;47.748;8.960;2023-06-01T02:09:13;5.53;;;5.13;;
3149;SDS011;32503;47.748;8.960;2023-06-01T02:11:40;5.73;;;5.33;;
3149;SDS011;32503;47.748;8.960;2023-06-01T02:14:08;7.03;;;6.47;;
3149;SDS011;32503;47.748;8.960;2023-06-01T02:16:35;5.60;;;5.20;;
3149;SDS011;32503;47.748;8.960;2023-06-01T02:19:04;6.33;;;5.90;;
3149;SDS011;32503;47.748;8.960;2023-06-01T02:21:31;5.93;;;5.43;;
3149;SDS011;32503;47.748;8.960;2023-06-01T02:23:58;6.63;;;6.23;;
3149;SDS011;32503;47.748;8.960;2023-06-01T02:26:29;5.53;;;5.13;;
3149;SDS011;32503;47.748;8.960;2023-06-01T02:28:57;6.57;;;6.07;;
3149;SDS011;32503;47.748;8.960;2023-06-01T02:31:24;6.40;;;5.90;;
3149;SDS011;32503;47.748;8.960;2023-06-01T02:33:51;5.83;;;5.53;;
3149;SDS011;32503;47.748;8.960;2023-06-01T02:36:19;5.67;;;5.30;;
3149;SDS011;32503;47.748;8.960;2023-06-01T02:38:46;6.63;;;6.13;;
3149;SDS011;32503;47.748;8.960;2023-06-01T02:41:13;5.97;;;5.47;;
3149;SDS011;32503;47.748;8.960;2023-06-01T02:43:40;6.50;;;6.00;;
3149;SDS011;32503;47.748;8.960;2023-06-01T02:46:07;6.60;;;6.20;;
3149;SDS011;32503;47.748;8.960;2023-06-01T02:48:34;5.43;;;5.23;;
3149;SDS011;32503;47.748;8.960;2023-06-01T02:51:01;6.53;;;6.00;;
3149;SDS011;32503;47.748;8.960;2023-06-01T02:53:30;6.23;;;5.70;;
3149;SDS011;32503;47.748;8.960;2023-06-01T02:55:57;6.63;;;6.13;;
3149;SDS011;32503;47.748;8.960;2023-06-01T02:58:24;6.40;;;6.00;;
3149;SDS011;32503;47.748;8.960;2023-06-01T03:00:54;6.43;;;6.00;;
3149;SDS011;32503;47.748;8.960;2023-06-01T03:03:23;6.00;;;5.50;;
3149;SDS011;32503;47.748;8.960;2023-06-01T03:05:50;5.43;;;5.03;;
3149;SDS011;32503;47.748;8.960;2023-06-01T03:08:17;5.47;;;5.17;;
3149;SDS011;32503;47.748;8.960;2023-06-01T03:10:46;5.57;;;5.20;;
3149;SDS011;32503;47.748;8.960;2023-06-01T03:13:13;5.20;;;4.80;;
3149;SDS011;32503;47.748;8.960;2023-06-01T03:15:40;4.53;;;4.23;;
3149;SDS011;32503;47.748;8.960;2023-06-01T03:18:07;5.10;;;4.80;;
3149;SDS011;32503;47.748;8.960;2023-06-01T03:20:34;5.30;;;4.90;;
3149;SDS011;32503;47.748;8.960;2023-06-01T03:23:01;5.17;;;4.87;;
3149;SDS011;32503;47.748;8.960;2023-06-01T03:25:28;5.37;;;5.07;;
3149;SDS011;32503;47.748;8.960;2023-06-01T03:27:57;6.10;;;5.70;;
3149;SDS011;32503;47.748;8.960;2023-06-01T03:30:24;5.77;;;5.40;;
3149;SDS011;32503;47.748;8.960;2023-06-01T03:32:51;6.10;;;4.73;;
3149;SDS011;32503;47.748;8.960;2023-06-01T03:35:18;5.70;;;5.20;;
3149;SDS011;32503;47.748;8.960;2023-06-01T03:37:45;5.80;;;5.50;;
3149;SDS011;32503;47.748;8.960;2023-06-01T03:40:12;4.43;;;4.23;;
3149;SDS011;32503;47.748;8.960;2023-06-01T03:42:40;6.43;;;6.13;;
3149;SDS011;32503;47.748;8.960;2023-06-01T03:45:10;5.83;;;5.43;;
3149;SDS011;32503;47.748;8.960;2023-06-01T03:47:38;6.33;;;5.93;;
3149;SDS011;32503;47.748;8.960;2023-06-01T03:50:06;5.87;;;5.53;;
3149;SDS011;32503;47.748;8.960;2023-06-01T03:52:35;6.10;;;5.77;;
3149;SDS011;32503;47.748;8.960;2023-06-01T03:55:03;6.67;;;6.20;;
3149;SDS011;32503;47.748;8.960;2023-06-01T03:57:33;6.20;;;5.70;;
3149;SDS011;32503;47.748;8.960;2023-06-01T04:00:01;6.97;;;6.47;;
3149;SDS011;32503;47.748;8.960;2023-06-01T04:02:45;6.50;;;6.10;;
3149;SDS011;32503;47.748;8.960;2023-06-01T04:05:15;6.30;;;5.77;;
3149;SDS011;32503;47.748;8.960;2023-06-01T04:07:43;6.47;;;5.97;;
3149;SDS011;32503;47.748;8.960;2023-06-01T04:10:11;6.20;;;5.80;;
3149;SDS011;32503;47.748;8.960;2023-06-01T04:12:40;6.77;;;6.03;;
3149;SDS011;32503;47.748;8.960;2023-06-01T04:15:08;5.83;;;5.43;;
3149;SDS011;32503;47.748;8.960;2023-06-01T04:17:36;6.77;;;6.17;;
3149;SDS011;32503;47.748;8.960;2023-06-01T04:20:06;6.00;;;5.50;;
3149;SDS011;32503;47.748;8.960;2023-06-01T04:22:36;5.40;;;5.00;;
3149;SDS011;32503;47.748;8.960;2023-06-01T04:25:05;6.00;;;5.50;;
3149;SDS011;32503;47.748;8.960;2023-06-01T04:27:34;5.57;;;5.20;;
3149;SDS011;32503;47.748;8.960;2023-06-01T04:30:03;5.97;;;5.10;;
3149;SDS011;32503;47.748;8.960;2023-06-01T04:32:32;6.53;;;6.13;;
3149;SDS011;32503;47.748;8.960;2023-06-01T04:35:03;5.13;;;4.77;;
3149;SDS011;32503;47.748;8.960;2023-06-01T04:37:33;6.07;;;5.67;;
3149;SDS011;32503;47.748;8.960;2023-06-01T04:40:01;6.37;;;5.87;;
3149;SDS011;32503;47.748;8.960;2023-06-01T04:42:32;5.60;;;5.30;;
3149;SDS011;32503;47.748;8.960;2023-06-01T04:44:59;5.40;;;5.10;;
3149;SDS011;32503;47.748;8.960;2023-06-01T04:47:29;6.47;;;5.87;;
3149;SDS011;32503;47.748;8.960;2023-06-01T04:49:56;5.00;;;4.70;;
3149;SDS011;32503;47.748;8.960;2023-06-01T04:52:25;5.80;;;5.50;;
3149;SDS011;32503;47.748;8.960;2023-06-01T04:54:53;5.13;;;4.80;;
3149;SDS011;32503;47.748;8.960;2023-06-01T04:57:20;5.70;;;5.30;;
3149;SDS011;32503;47.748;8.960;2023-06-01T04:59:48;8.03;;;5.63;;
3149;SDS011;32503;47.748;8.960;2023-06-01T05:02:16;7.23;;;6.70;;
3149;SDS011;32503;47.748;8.960;2023-06-01T05:04:43;6.57;;;6.00;;
3149;SDS011;32503;47.748;8.960;2023-06-01T05:07:10;6.30;;;4.90;;
3149;SDS011;32503;47.748;8.960;2023-06-01T05:09:39;5.17;;;4.80;;
3149;SDS011;32503;47.748;8.960;2023-06-01T05:12:06;5.17;;;4.77;;
3149;SDS011;32503;47.748;8.960;2023-06-01T05:14:34;5.80;;;4.80;;
3149;SDS011;32503;47.748;8.960;2023-06-01T05:17:01;5.10;;;4.70;;
3149;SDS011;32503;47.748;8.960;2023-06-01T05:19:28;7.03;;;5.90;;
3149;SDS011;32503;47.748;8.960;2023-06-01T05:21:55;4.73;;;4.50;;
3149;SDS011;32503;47.748;8.960;2023-06-01T05:24:22;5.73;;;5.37;;
3149;SDS011;32503;47.748;8.960;2023-06-01T05:26:50;5.13;;;4.83;;
3149;SDS011;32503;47.748;8.960;2023-06-01T05:29:17;4.77;;;4.40;;
3149;SDS011;32503;47.748;8.960;2023-06-01T05:31:45;6.20;;;4.67;;
3149;SDS011;32503;47.748;8.960;2023-06-01T05:34:13;4.90;;;4.60;;
3149;SDS011;32503;47.748;8.960;2023-06-01T05:36:40;5.13;;;4.80;;
3149;SDS011;32503;47.748;8.960;2023-06-01T05:39:08;4.43;;;4.23;;
3149;SDS011;32503;47.748;8.960;2023-06-01T05:41:36;4.80;;;4.47;;
3149;SDS011;32503;47.748;8.960;2023-06-01T05:44:04;5.27;;;4.87;;
3149;SDS011;32503;47.748;8.960;2023-06-01T05:46:31;4.50;;;4.30;;
3149;SDS011;32503;47.748;8.960;2023-06-01T05:48:58;5.47;;;5.10;;
3149;SDS011;32503;47.748;8.960;2023-06-01T05:51:25;5.63;;;5.10;;
3149;SDS011;32503;47.748;8.960;2023-06-01T05:53:52;4.77;;;4.33;;
3149;SDS011;32503;47.748;8.960;2023-06-01T05:56:19;4.57;;;4.37;;
3149;SDS011;32503;47.748;8.960;2023-06-01T05:58:46;5.23;;;4.80;;
3149;SDS011;32503;47.748;8.960;2023-06-01T06:01:19;4.57;;;4.37;;
3149;SDS011;32503;47.748;8.960;2023-06-01T06:03:47;4.77;;;4.40;;
3149;SDS011;32503;47.748;8.960;2023-06-01T06:06:16;5.03;;;4.73;;
3149;SDS011;32503;47.748;8.960;2023-06-01T06:08:43;6.97;;;6.20;;
3149;SDS011;32503;47.748;8.960;2023-06-01T06:11:10;5.60;;;5.20;;
3149;SDS011;32503;47.748;8.960;2023-06-01T06:13:37;6.13;;;5.63;;
3149;SDS011;32503;47.748;8.960;2023-06-01T06:16:04;5.67;;;5.30;;
3149;SDS011;32503;47.748;8.960;2023-06-01T06:18:33;9.43;;;5.63;;
3149;SDS011;32503;47.748;8.960;2023-06-01T06:21:00;4.87;;;4.37;;
3149;SDS011;32503;47.748;8.960;2023-06-01T06:23:27;5.30;;;4.90;;
3149;SDS011;32503;47.748;8.960;2023-06-01T06:25:55;5.63;;;5.23;;
3149;SDS011;32503;47.748;8.960;2023-06-01T06:28:22;4.87;;;4.57;;
3149;SDS011;32503;47.748;8.960;2023-06-01T06:30:49;5.53;;;5.23;;
3149;SDS011;32503;47.748;8.960;2023-06-01T06:33:16;5.33;;;5.07;;
3149;SDS011;32503;47.748;8.960;2023-06-01T06:35:44;7.23;;;4.90;;
3149;SDS011;32503;47.748;8.960;2023-06-01T06:38:11;5.70;;;5.30;;
3149;SDS011;32503;47.748;8.960;2023-06-01T06:40:39;8.17;;;5.00;;
3149;SDS011;32503;47.748;8.960;2023-06-01T06:43:06;5.40;;;5.00;;
3149;SDS011;32503;47.748;8.960;2023-06-01T06:45:33;5.70;;;5.20;;
3149;SDS011;32503;47.748;8.960;2023-06-01T06:48:00;4.90;;;4.63;;
3149;SDS011;32503;47.748;8.960;2023-06-01T06:50:27;5.20;;;4.80;;
3149;SDS011;32503;47.748;8.960;2023-06-01T06:52:55;5.60;;;5.20;;
3149;SDS011;32503;47.748;8.960;2023-06-01T06:55:22;5.80;;;5.40;;
3149;SDS011;32503;47.748;8.960;2023-06-01T06:57:49;6.10;;;5.70;;
3149;SDS011;32503;47.748;8.960;2023-06-01T07:00:16;5.80;;;5.30;;
3149;SDS011;32503;47.748;8.960;2023-06-01T07:02:46;5.50;;;4.97;;
3149;SDS011;32503;47.748;8.960;2023-06-01T07:05:13;6.63;;;5.83;;
3149;SDS011;32503;47.748;8.960;2023-06-01T07:07:41;5.50;;;5.10;;
3149;SDS011;32503;47.748;8.960;2023-06-01T07:10:09;4.93;;;4.70;;
3149;SDS011;32503;47.748;8.960;2023-06-01T07:12:36;5.73;;;5.20;;
3149;SDS011;32503;47.748;8.960;2023-06-01T07:15:04;6.07;;;5.50;;
3149;SDS011;32503;47.748;8.960;2023-06-01T07:17:32;6.47;;;6.13;;
3149;SDS011;32503;47.748;8.960;2023-06-01T07:20:01;5.83;;;5.43;;
3149;SDS011;32503;47.748;8.960;2023-06-01T07:22:31;6.13;;;5.73;;
3149;SDS011;32503;47.748;8.960;2023-06-01T07:24:58;5.73;;;5.33;;
3149;SDS011;32503;47.748;8.960;2023-06-01T07:27:26;5.63;;;5.13;;
3149;SDS011;32503;47.748;8.960;2023-06-01T07:29:54;5.80;;;5.40;;
3149;SDS011;32503;47.748;8.960;2023-06-01T07:32:21;6.20;;;5.80;;
3149;SDS011;32503;47.748;8.960;2023-06-01T07:34:48;5.70;;;5.40;;
3149;SDS011;32503;47.748;8.960;2023-06-01T07:37:15;6.47;;;6.07;;
3149;SDS011;32503;47.748;8.960;2023-06-01T07:39:46;6.20;;;5.80;;
3149;SDS011;32503;47.748;8.960;2023-06-01T07:42:14;10.37;;;6.70;;
3149;SDS011;32503;47.748;8.960;2023-06-01T07:44:42;5.83;;;5.50;;
3149;SDS011;32503;47.748;8.960;2023-06-01T07:47:11;5.83;;;5.50;;
3149;SDS011;32503;47.748;8.960;2023-06-01T07:49:38;5.33;;;5.03;;
3149;SDS011;32503;47.748;8.960;2023-06-01T07:52:05;7.20;;;6.60;;
3149;SDS011;32503;47.748;8.960;2023-06-01T07:54:34;7.50;;;5.93;;
3149;SDS011;32503;47.748;8.960;2023-06-01T07:57:01;6.87;;;6.37;;
3149;SDS011;32503;47.748;8.960;2023-06-01T07:59:29;7.00;;;6.50;;
3149;SDS011;32503;47.748;8.960;2023-06-01T08:01:58;6.53;;;6.13;;
3149;SDS011;32503;47.748;8.960;2023-06-01T08:04:25;6.60;;;6.20;;
3149;SDS011;32503;47.748;8.960;2023-06-01T08:06:58;6.83;;;6.43;;
3149;SDS011;32503;47.748;8.960;2023-06-01T08:09:28;5.60;;;5.30;;
3149;SDS011;32503;47.748;8.960;2023-06-01T08:11:56;6.00;;;5.53;;
3149;SDS011;32503;47.748;8.960;2023-06-01T08:14:23;6.23;;;5.70;;
3149;SDS011;32503;47.748;8.960;2023-06-01T08:16:50;7.40;;;6.80;;
3149;SDS011;32503;47.748;8.960;2023-06-01T08:19:19;7.43;;;7.03;;
3149;SDS011;32503;47.748;8.960;2023-06-01T08:21:46;5.40;;;5.10;;
3149;SDS011;32503;47.748;8.960;2023-06-01T08:24:13;7.23;;;6.70;;
3149;SDS011;32503;47.748;8.960;2023-06-01T08:26:41;6.50;;;6.00;;
3149;SDS011;32503;47.748;8.960;2023-06-01T08:29:08;6.77;;;6.33;;
3149;SDS011;32503;47.748;8.960;2023-06-01T08:31:36;6.07;;;5.63;;
3149;SDS011;32503;47.748;8.960;2023-06-01T08:34:03;7.30;;;6.80;;
3149;SDS011;32503;47.748;8.960;2023-06-01T08:36:32;7.40;;;6.90;;
3149;SDS011;32503;47.748;8.960;2023-06-01T08:38:59;7.50;;;6.90;;
3149;SDS011;32503;47.748;8.960;2023-06-01T08:41:29;7.33;;;6.83;;
3149;SDS011;32503;47.748;8.960;2023-06-01T08:44:03;5.70;;;5.40;;
3149;SDS011;32503;47.748;8.960;2023-06-01T08:46:32;8.30;;;7.57;;
3149;SDS011;32503;47.748;8.960;2023-06-01T08:48:59;7.87;;;7.17;;
3149;SDS011;32503;47.748;8.960;2023-06-01T08:51:27;6.67;;;6.07;;
3149;SDS011;32503;47.748;8.960;2023-06-01T08:53:59;7.30;;;6.80;;
3149;SDS011;32503;47.748;8.960;2023-06-01T08:56:29;6.83;;;6.23;;
3149;SDS011;32503;47.748;8.960;2023-06-01T08:58:56;8.20;;;7.53;;
3149;SDS011;32503;47.748;8.960;2023-06-01T09:01:25;7.47;;;6.43;;
3149;SDS011;32503;47.748;8.960;2023-06-01T09:03:53;7.47;;;6.90;;
3149;SDS011;32503;47.748;8.960;2023-06-01T09:06:20;7.23;;;6.70;;
3149;SDS011;32503;47.748;8.960;2023-06-01T09:08:47;6.87;;;6.40;;
3149;SDS011;32503;47.748;8.960;2023-06-01T09:11:16;7.10;;;6.70;;
3149;SDS011;32503;47.748;8.960;2023-06-01T09:13:43;7.27;;;6.80;;
3149;SDS011;32503;47.748;8.960;2023-06-01T09:16:10;7.33;;;6.77;;
3149;SDS011;32503;47.748;8.960;2023-06-01T09:18:41;7.90;;;7.40;;
3149;SDS011;32503;47.748;8.960;2023-06-01T09:21:18;9.10;;;7.83;;
3149;SDS011;32503;47.748;8.960;2023-06-01T09:23:46;7.13;;;6.63;;
3149;SDS011;32503;47.748;8.960;2023-06-01T09:26:14;6.70;;;6.30;;
3149;SDS011;32503;47.748;8.960;2023-06-01T09:31:34;7.57;;;6.90;;
3149;SDS011;32503;47.748;8.960;2023-06-01T09:34:06;9.60;;;8.67;;
3149;SDS011;32503;47.748;8.960;2023-06-01T09:36:34;8.27;;;7.67;;
3149;SDS011;32503;47.748;8.960;2023-06-01T09:39:02;8.27;;;7.60;;
3149;SDS011;32503;47.748;8.960;2023-06-01T09:44:24;8.07;;;7.37;;
3149;SDS011;32503;47.748;8.960;2023-06-01T09:46:53;7.23;;;6.80;;
3149;SDS011;32503;47.748;8.960;2023-06-01T09:49:23;8.67;;;7.90;;
3149;SDS011;32503;47.748;8.960;2023-06-01T09:51:52;8.33;;;7.60;;
3149;SDS011;32503;47.748;8.960;2023-06-01T09:54:36;8.03;;;7.50;;
3149;SDS011;32503;47.748;8.960;2023-06-01T09:57:08;7.10;;;6.60;;
3149;SDS011;32503;47.748;8.960;2023-06-01T09:59:39;8.60;;;7.80;;
3149;SDS011;32503;47.748;8.960;2023-06-01T10:02:11;7.40;;;7.00;;
3149;SDS011;32503;47.748;8.960;2023-06-01T10:04:40;8.03;;;7.40;;
3149;SDS011;32503;47.748;8.960;2023-06-01T10:07:11;8.33;;;7.73;;
3149;SDS011;32503;47.748;8.960;2023-06-01T10:09:40;8.03;;;7.23;;
3149;SDS011;32503;47.748;8.960;2023-06-01T10:12:12;9.63;;;6.97;;
3149;SDS011;32503;47.748;8.960;2023-06-01T10:14:39;8.27;;;7.53;;
3149;SDS011;32503;47.748;8.960;2023-06-01T10:17:06;7.37;;;6.87;;
3149;SDS011;32503;47.748;8.960;2023-06-01T10:19:35;7.67;;;6.97;;
3149;SDS011;32503;47.748;8.960;2023-06-01T10:22:03;7.53;;;6.97;;
3149;SDS011;32503;47.748;8.960;2023-06-01T10:24:32;7.50;;;7.00;;
3149;SDS011;32503;47.748;8.960;2023-06-01T10:27:01;7.73;;;7.20;;
3149;SDS011;32503;47.748;8.960;2023-06-01T10:29:37;9.30;;;7.73;;
3149;SDS011;32503;47.748;8.960;2023-06-01T10:32:09;7.60;;;6.93;;
3149;SDS011;32503;47.748;8.960;2023-06-01T10:35:07;8.53;;;7.73;;
3149;SDS011;32503;47.748;8.960;2023-06-01T10:37:35;7.23;;;6.53;;
3149;SDS011;32503;47.748;8.960;2023-06-01T10:40:19;7.67;;;7.07;;
3149;SDS011;32503;47.748;8.960;2023-06-01T10:42:47;6.90;;;6.50;;
3149;SDS011;32503;47.748;8.960;2023-06-01T10:45:36;8.10;;;7.40;;
3149;SDS011;32503;47.748;8.960;2023-06-01T10:48:05;7.53;;;6.97;;
3149;SDS011;32503;47.748;8.960;2023-06-01T10:50:35;7.77;;;7.27;;
3149;SDS011;32503;47.748;8.960;2023-06-01T11:01:39;8.27;;;7.57;;
3149;SDS011;32503;47.748;8.960;2023-06-01T11:04:07;9.17;;;8.47;;
3149;SDS011;32503;47.748;8.960;2023-06-01T11:06:36;7.97;;;7.37;;
3149;SDS011;32503;47.748;8.960;2023-06-01T11:09:06;8.37;;;7.77;;
3149;SDS011;32503;47.748;8.960;2023-06-01T11:14:27;6.87;;;6.47;;
3149;SDS011;32503;47.748;8.960;2023-06-01T11:19:58;7.60;;;7.00;;
3149;SDS011;32503;47.748;8.960;2023-06-01T11:22:34;7.33;;;6.83;;
3149;SDS011;32503;47.748;8.960;2023-06-01T11:25:03;8.57;;;7.70;;
3149;SDS011;32503;47.748;8.960;2023-06-01T11:27:33;8.43;;;7.90;;
3149;SDS011;32503;47.748;8.960;2023-06-01T11:30:01;8.70;;;8.10;;
3149;SDS011;32503;47.748;8.960;2023-06-01T11:32:30;8.23;;;7.53;;
3149;SDS011;32503;47.748;8.960;2023-06-01T11:35:14;7.33;;;6.90;;
3149;SDS011;32503;47.748;8.960;2023-06-01T11:37:43;8.00;;;7.37;;
3149;SDS011;32503;47.748;8.960;2023-06-01T11:40:12;8.70;;;8.00;;
3149;SDS011;32503;47.748;8.960;2023-06-01T11:42:40;9.00;;;8.30;;
3149;SDS011;32503;47.748;8.960;2023-06-01T11:45:11;8.10;;;7.40;;
3149;SDS011;32503;47.748;8.960;2023-06-01T11:47:43;8.37;;;7.87;;
3149;SDS011;32503;47.748;8.960;2023-06-01T11:50:19;7.60;;;7.17;;
3149;SDS011;32503;47.748;8.960;2023-06-01T11:52:51;7.83;;;7.33;;
3149;SDS011;32503;47.748;8.960;2023-06-01T11:55:20;8.87;;;8.10;;
3149;SDS011;32503;47.748;8.960;2023-06-01T11:57:47;8.07;;;7.50;;
3149;SDS011;32503;47.748;8.960;2023-06-01T12:00:14;7.90;;;7.27;;
3149;SDS011;32503;47.748;8.960;2023-06-01T12:02:46;7.50;;;7.00;;
3149;SDS011;32503;47.748;8.960;2023-06-01T12:05:13;7.27;;;6.83;;
3149;SDS011;32503;47.748;8.960;2023-06-01T12:07:43;7.60;;;7.00;;
3149;SDS011;32503;47.748;8.960;2023-06-01T12:10:11;7.77;;;7.27;;
3149;SDS011;32503;47.748;8.960;2023-06-01T12:12:40;7.67;;;7.17;;
3149;SDS011;32503;47.748;8.960;2023-06-01T12:15:09;7.30;;;6.80;;
3149;SDS011;32503;47.748;8.960;2023-06-01T12:17:48;6.70;;;6.03;;
3149;SDS011;32503;47.748;8.960;2023-06-01T12:20:26;6.07;;;5.77;;
3149;SDS011;32503;47.748;8.960;2023-06-01T12:22:54;7.77;;;7.23;;
3149;SDS011;32503;47.748;8.960;2023-06-01T12:25:23;7.13;;;6.70;;
3149;SDS011;32503;47.748;8.960;2023-06-01T12:28:00;6.40;;;6.00;;
3149;SDS011;32503;47.748;8.960;2023-06-01T12:30:29;6.83;;;6.43;;
3149;SDS011;32503;47.748;8.960;2023-06-01T12:32:58;6.77;;;6.37;;
3149;SDS011;32503;47.748;8.960;2023-06-01T12:35:25;6.67;;;6.13;;
3149;SDS011;32503;47.748;8.960;2023-06-01T12:38:01;6.07;;;5.67;;
3149;SDS011;32503;47.748;8.960;2023-06-01T12:40:31;6.80;;;6.23;;
3149;SDS011;32503;47.748;8.960;2023-06-01T12:43:00;7.20;;;6.63;;
3149;SDS011;32503;47.748;8.960;2023-06-01T12:45:34;7.70;;;7.10;;
3149;SDS011;32503;47.748;8.960;2023-06-01T12:48:03;6.63;;;6.33;;
3149;SDS011;32503;47.748;8.960;2023-06-01T12:50:31;6.23;;;5.83;;
3149;SDS011;32503;47.748;8.960;2023-06-01T12:52:58;6.77;;;6.27;;
3149;SDS011;32503;47.748;8.960;2023-06-01T12:55:27;5.97;;;5.47;;
3149;SDS011;32503;47.748;8.960;2023-06-01T12:57:54;6.50;;;6.17;;
3149;SDS011;32503;47.748;8.960;2023-06-01T13:00:22;5.87;;;5.43;;
3149;SDS011;32503;47.748;8.960;2023-06-01T13:02:49;5.80;;;5.50;;
3149;SDS011;32503;47.748;8.960;2023-06-01T13:05:18;6.53;;;6.03;;
3149;SDS011;32503;47.748;8.960;2023-06-01T13:07:45;5.43;;;5.23;;
3149;SDS011;32503;47.748;8.960;2023-06-01T13:10:13;7.07;;;6.60;;
3149;SDS011;32503;47.748;8.960;2023-06-01T13:12:40;6.60;;;6.17;;
3149;SDS011;32503;47.748;8.960;2023-06-01T13:15:07;6.50;;;6.10;;
3149;SDS011;32503;47.748;8.960;2023-06-01T13:17:37;6.50;;;6.10;;
3149;SDS011;32503;47.748;8.960;2023-06-01T13:20:04;6.20;;;5.90;;
3149;SDS011;32503;47.748;8.960;2023-06-01T13:22:37;5.70;;;5.50;;
3149;SDS011;32503;47.748;8.960;2023-06-01T13:25:04;6.63;;;6.17;;
3149;SDS011;32503;47.748;8.960;2023-06-01T13:27:31;6.67;;;6.20;;
3149;SDS011;32503;47.748;8.960;2023-06-01T13:29:59;6.10;;;5.70;;
3149;SDS011;32503;47.748;8.960;2023-06-01T13:32:27;6.20;;;5.80;;
3149;SDS011;32503;47.748;8.960;2023-06-01T13:34:54;6.10;;;5.80;;
3149;SDS011;32503;47.748;8.960;2023-06-01T13:37:21;5.77;;;5.50;;
3149;SDS011;32503;47.748;8.960;2023-06-01T13:39:50;5.50;;;5.20;;
3149;SDS011;32503;47.748;8.960;2023-06-01T13:42:17;6.03;;;5.63;;
3149;SDS011;32503;47.748;8.960;2023-06-01T13:44:44;5.70;;;5.30;;
3149;SDS011;32503;47.748;8.960;2023-06-01T13:47:12;5.73;;;5.43;;
3149;SDS011;32503;47.748;8.960;2023-06-01T13:49:40;5.67;;;5.37;;
3149;SDS011;32503;47.748;8.960;2023-06-01T13:52:08;5.43;;;5.13;;
3149;SDS011;32503;47.748;8.960;2023-06-01T13:54:35;6.33;;;5.83;;
3149;SDS011;32503;47.748;8.960;2023-06-01T13:57:04;5.23;;;5.03;;
3149;SDS011;32503;47.748;8.960;2023-06-01T13:59:32;5.20;;;5.00;;
3149;SDS011;32503;47.748;8.960;2023-06-01T14:02:01;5.20;;;4.90;;
3149;SDS011;32503;47.748;8.960;2023-06-01T14:04:28;6.07;;;5.67;;
3149;SDS011;32503;47.748;8.960;2023-06-01T14:06:55;5.73;;;5.43;;
3149;SDS011;32503;47.748;8.960;2023-06-01T14:09:22;5.47;;;5.17;;
3149;SDS011;32503;47.748;8.960;2023-06-01T14:11:49;5.20;;;4.90;;
3149;SDS011;32503;47.748;8.960;2023-06-01T14:14:18;5.83;;;5.43;;
3149;SDS011;32503;47.748;8.960;2023-06-01T14:16:45;4.90;;;4.60;;
3149;SDS011;32503;47.748;8.960;2023-06-01T14:19:12;4.90;;;4.70;;
3149;SDS011;32503;47.748;8.960;2023-06-01T14:21:40;4.80;;;4.50;;
3149;SDS011;32503;47.748;8.960;2023-06-01T14:24:07;5.63;;;5.33;;
3149;SDS011;32503;47.748;8.960;2023-06-01T14:26:34;4.70;;;4.40;;
3149;SDS011;32503;47.748;8.960;2023-06-01T14:29:01;4.70;;;4.50;;
3149;SDS011;32503;47.748;8.960;2023-06-01T14:31:30;5.90;;;5.33;;
3149;SDS011;32503;47.748;8.960;2023-06-01T14:33:57;5.60;;;5.30;;
3149;SDS011;32503;47.748;8.960;2023-06-01T14:36:24;4.50;;;4.13;;
3149;SDS011;32503;47.748;8.960;2023-06-01T14:38:51;5.13;;;4.60;;
3149;SDS011;32503;47.748;8.960;2023-06-01T14:41:18;5.07;;;4.70;;
3149;SDS011;32503;47.748;8.960;2023-06-01T14:43:45;4.57;;;4.37;;
3149;SDS011;32503;47.748;8.960;2023-06-01T14:46:12;4.77;;;4.47;;
3149;SDS011;32503;47.748;8.960;2023-06-01T14:48:40;5.53;;;5.03;;
3149;SDS011;32503;47.748;8.960;2023-06-01T14:51:07;4.60;;;4.40;;
3149;SDS011;32503;47.748;8.960;2023-06-01T14:53:35;5.60;;;5.30;;
3149;SDS011;32503;47.748;8.960;2023-06-01T14:56:02;5.13;;;4.80;;
3149;SDS011;32503;47.748;8.960;2023-06-01T14:58:29;5.20;;;4.90;;
3149;SDS011;32503;47.748;8.960;2023-06-01T15:00:56;5.27;;;4.97;;
3149;SDS011;32503;47.748;8.960;2023-06-01T15:03:23;5.50;;;5.20;;
3149;SDS011;32503;47.748;8.960;2023-06-01T15:05:52;4.57;;;4.37;;
3149;SDS011;32503;47.748;8.960;2023-06-01T15:08:19;5.10;;;4.80;;
3149;SDS011;32503;47.748;8.960;2023-06-01T15:10:46;6.27;;;5.87;;
3149;SDS011;32503;47.748;8.960;2023-06-01T15:13:13;5.40;;;5.10;;
3149;SDS011;32503;47.748;8.960;2023-06-01T15:15:41;5.80;;;5.40;;
3149;SDS011;32503;47.748;8.960;2023-06-01T15:18:08;4.93;;;4.73;;
3149;SDS011;32503;47.748;8.960;2023-06-01T15:20:35;5.13;;;4.93;;
3149;SDS011;32503;47.748;8.960;2023-06-01T15:23:03;5.30;;;4.80;;
3149;SDS011;32503;47.748;8.960;2023-06-01T15:25:30;4.47;;;4.27;;
3149;SDS011;32503;47.748;8.960;2023-06-01T15:27:57;4.80;;;4.50;;
3149;SDS011;32503;47.748;8.960;2023-06-01T15:30:24;4.37;;;4.17;;
3149;SDS011;32503;47.748;8.960;2023-06-01T15:32:53;4.40;;;4.20;;
3149;SDS011;32503;47.748;8.960;2023-06-01T15:35:20;4.33;;;4.10;;